Archival Weather

Chicago O'Hare International

Chicago, Illinois (KORD)

Report from: Sunday, March 6, 2022 5:51 PM CST
Current time: Saturday, February 4, 2023 10:42 PM CST

Current weather
Weather history
Weather forecast

Temperature3.9°C (39.0°F)
Wind chill2.0°C (35.6°F)
Dew point-2.2°C (28.0°F)
Winds 4 kts (2.1 m/s, 4.6 mph) West (280°)
Visibility10 mi. (16.1 km)
Clouds Scattered clouds 2,600 ft. (792 m)
Ceiling: Broken clouds 18,000 ft. (5,486 m)
Altimeter30.04 in.Hg (1017 mB)
Relative humidity64 %
Density altitude-1,401 ft. (-427 m)
Sea-level pressure101.8 kPa (1018 mB, 30.05 in.Hg)
Max temp last 6 hours5.0°C (41.0°F)
Min temp last 6 hours3.3°C (37.9°F)
Remarks System requires maintenance
Automated weather observing station with precipitation discriminator
Pressure rising more quickly
Flight conditions Visual Meteorological Conditions
Raw dataKORD 062351Z 28004KT 10SM SCT026 BKN180 04/M02 A3004 RMK AO2 SLP177 T00391022 10050 20033 53002 $
An unhandled exception has occurred. See browser dev tools for details. Reload 🗙